Time;durP1;ratioP1;P1;durP2;ratioP2;P2;SDS_P1;SDS_P2;PMS_P1;PMS_P2;Temp;Humidity;BMP_temperature;BMP_pressure;BME280_temperature;BME280_humidity;BME280_pressure;Samples;Min_cycle;Max_cycle;Signal;HPM_P1;HPM_P2
2023/10/09 00:00:50;;;;;;;;;;;;;;;;;;5110241;28;19908;-70
2023/10/09 00:03:17;;;;;;;;;;;;;;;;;;5111481;28;19962;-70
2023/10/09 00:05:46;;;;;;;;;;;;;;;;;;5110964;28;20002;-70
2023/10/09 00:08:30;;;;;;;;;;;;;;;;;;5111906;28;19912;-70
2023/10/09 00:13:31;;;;;;;;;;;;;;;;;;5092115;27;19923;-70
2023/10/09 00:16:00;;;;;;;;;;;;;;;;;;5091457;28;19912;-70
2023/10/09 00:19:47;;;;;;;;;;;;;;;;;;5091040;28;20388;-69
2023/10/09 00:23:52;;;;;;;;;;;;;;;;;;5112379;27;19916;-69
2023/10/09 00:26:22;;;;;;;;;;;;;;;;;;5111425;28;19935;-69
2023/10/09 00:33:21;;;;;;;;;;;;;;;;;;5173495;27;20029;-70
2023/10/09 00:35:54;;;;;;;;;;;;;;;;;;5155214;27;19915;-70
2023/10/09 00:39:18;;;;;;;;;;;;;;;;;;5111857;27;20269;-71
2023/10/09 00:41:44;;;;;;;;;;;;;;;;;;5112223;28;20327;-71
2023/10/09 00:44:10;;;;;;;;;;;;;;;;;;5111832;28;20425;-71
2023/10/09 00:46:42;;;;;;;;;;;;;;;;;;5111270;28;19908;-71
2023/10/09 00:49:10;;;;;;;;;;;;;;;;;;5112222;28;19911;-70
2023/10/09 00:51:36;;;;;;;;;;;;;;;;;;5111598;28;20406;-71
2023/10/09 00:55:55;;;;;;;;;;;;;;;;;;5092352;27;19916;-70
2023/10/09 00:58:26;;;;;;;;;;;;;;;;;;5090147;28;19912;-70
2023/10/09 01:00:53;;;;;;;;;;;;;;;;;;5090963;28;19908;-70
2023/10/09 01:03:20;;;;;;;;;;;;;;;;;;5089988;28;20003;-70
2023/10/09 01:05:56;;;;;;;;;;;;;;;;;;5089946;28;19912;-70
2023/10/09 01:08:30;;;;;;;;;;;;;;;;;;5089538;28;19908;-70
2023/10/09 01:10:56;;;;;;;;;;;;;;;;;;5091133;28;20394;-70
2023/10/09 01:15:35;;;;;;;;;;;;;;;;;;5111613;27;20413;-71
2023/10/09 01:17:59;;;;;;;;;;;;;;;;;;5111624;28;19912;-70
2023/10/09 01:20:30;;;;;;;;;;;;;;;;;;5111704;28;19914;-70
2023/10/09 01:22:56;;;;;;;;;;;;;;;;;;5111269;28;19915;-70
2023/10/09 01:25:22;;;;;;;;;;;;;;;;;;5111642;28;19908;-71
2023/10/09 01:28:16;;;;;;;;;;;;;;;;;;5071012;28;19919;-70
2023/10/09 01:30:42;;;;;;;;;;;;;;;;;;5071199;28;19913;-70
2023/10/09 01:33:30;;;;;;;;;;;;;;;;;;5069829;28;19915;-70
2023/10/09 01:41:19;;;;;;;;;;;;;;;;;;5112586;27;20268;-70
2023/10/09 01:43:45;;;;;;;;;;;;;;;;;;5110084;28;19957;-69
2023/10/09 01:46:11;;;;;;;;;;;;;;;;;;5111616;28;19908;-70
2023/10/09 01:48:41;;;;;;;;;;;;;;;;;;5111660;28;20333;-70
2023/10/09 01:51:08;;;;;;;;;;;;;;;;;;5111215;28;19908;-70
2023/10/09 01:53:38;;;;;;;;;;;;;;;;;;5110277;28;19908;-70
2023/10/09 01:56:04;;;;;;;;;;;;;;;;;;5111424;28;20010;-70
2023/10/09 01:58:32;;;;;;;;;;;;;;;;;;5111532;28;19956;-70
2023/10/09 02:02:31;;;;;;;;;;;;;;;;;;5092217;27;19923;-71
2023/10/09 02:05:24;;;;;;;;;;;;;;;;;;5089821;28;19912;-70
2023/10/09 02:07:53;;;;;;;;;;;;;;;;;;5090175;28;19951;-70
2023/10/09 02:13:53;;;;;;;;;;;;;;;;;;5092145;27;19917;-71
2023/10/09 02:16:28;;;;;;;;;;;;;;;;;;5091450;28;19920;-71
2023/10/09 02:18:55;;;;;;;;;;;;;;;;;;5091125;28;19935;-70
2023/10/09 02:22:39;;;;;;;;;;;;;;;;;;5111976;27;19916;-72
2023/10/09 02:29:23;;;;;;;;;;;;;;;;;;5112150;28;20368;-71
2023/10/09 02:31:55;;;;;;;;;;;;;;;;;;5111281;28;19912;-71
2023/10/09 02:34:27;;;;;;;;;;;;;;;;;;5110404;28;19908;-70
2023/10/09 02:37:12;;;;;;;;;;;;;;;;;;5112109;27;19922;-70
2023/10/09 02:39:46;;;;;;;;;;;;;;;;;;5111511;28;19912;-70
2023/10/09 02:46:44;;;;;;;;;;;;;;;;;;5111442;27;19912;-71
2023/10/09 02:49:15;;;;;;;;;;;;;;;;;;5111734;28;19919;-70
2023/10/09 02:51:41;;;;;;;;;;;;;;;;;;5112087;28;19915;-70
2023/10/09 02:54:17;;;;;;;;;;;;;;;;;;5111408;28;19915;-70
2023/10/09 03:01:07;;;;;;;;;;;;;;;;;;5091145;27;19916;-71
2023/10/09 03:03:35;;;;;;;;;;;;;;;;;;5091417;28;20015;-69
2023/10/09 03:06:57;;;;;;;;;;;;;;;;;;5111780;27;20291;-71
2023/10/09 03:09:28;;;;;;;;;;;;;;;;;;5112161;28;19912;-71
2023/10/09 03:11:54;;;;;;;;;;;;;;;;;;5111679;28;19922;-69
2023/10/09 03:14:20;;;;;;;;;;;;;;;;;;5111301;28;19908;-71
2023/10/09 03:16:48;;;;;;;;;;;;;;;;;;5111625;28;19916;-73
2023/10/09 03:19:14;;;;;;;;;;;;;;;;;;5111596;28;19915;-71
2023/10/09 03:21:40;;;;;;;;;;;;;;;;;;5111399;28;20363;-71
2023/10/09 03:24:08;;;;;;;;;;;;;;;;;;5110178;28;19962;-71
2023/10/09 03:26:34;;;;;;;;;;;;;;;;;;5111290;28;19976;-70
2023/10/09 03:29:06;;;;;;;;;;;;;;;;;;5111072;28;20372;-70
2023/10/09 03:31:33;;;;;;;;;;;;;;;;;;5111358;28;19923;-70
2023/10/09 03:33:58;;;;;;;;;;;;;;;;;;5110108;28;20384;-70
2023/10/09 03:37:28;;;;;;;;;;;;;;;;;;5111925;27;19916;-71
2023/10/09 03:39:57;;;;;;;;;;;;;;;;;;5111705;28;19999;-70
2023/10/09 03:42:24;;;;;;;;;;;;;;;;;;5111439;28;19947;-71
2023/10/09 03:44:53;;;;;;;;;;;;;;;;;;5111670;28;19908;-70
2023/10/09 03:47:22;;;;;;;;;;;;;;;;;;5111587;28;19912;-71
2023/10/09 03:51:37;;;;;;;;;;;;;;;;;;5112071;27;19916;-71
2023/10/09 03:54:07;;;;;;;;;;;;;;;;;;5110468;28;20326;-71
2023/10/09 03:56:33;;;;;;;;;;;;;;;;;;5111378;28;20284;-71
2023/10/09 03:59:01;;;;;;;;;;;;;;;;;;5110428;28;19908;-71
2023/10/09 04:01:37;;;;;;;;;;;;;;;;;;5111662;28;19934;-71
2023/10/09 04:04:04;;;;;;;;;;;;;;;;;;5111431;28;19968;-71
2023/10/09 04:06:32;;;;;;;;;;;;;;;;;;5111883;28;19915;-71
2023/10/09 04:08:58;;;;;;;;;;;;;;;;;;5110209;28;19912;-71
2023/10/09 04:11:24;;;;;;;;;;;;;;;;;;5111005;28;19949;-71
2023/10/09 04:13:53;;;;;;;;;;;;;;;;;;5111353;28;19912;-71
2023/10/09 04:16:33;;;;;;;;;;;;;;;;;;5111288;28;19908;-70
2023/10/09 04:18:59;;;;;;;;;;;;;;;;;;5110787;28;19915;-70
2023/10/09 04:26:34;;;;;;;;;;;;;;;;;;5111912;27;19922;-71
2023/10/09 04:32:18;;;;;;;;;;;;;;;;;;5091124;27;20392;-70
2023/10/09 04:34:56;;;;;;;;;;;;;;;;;;5090078;28;19954;-69
2023/10/09 04:39:16;;;;;;;;;;;;;;;;;;5111538;27;19922;-69
2023/10/09 04:44:59;;;;;;;;;;;;;;;;;;5112007;28;20012;-70
2023/10/09 04:57:38;;;;;;;;;;;;;;;;;;5111366;28;20049;-70
2023/10/09 05:00:06;;;;;;;;;;;;;;;;;;5111037;28;19912;-70
2023/10/09 05:02:36;;;;;;;;;;;;;;;;;;5110100;28;19908;-70
2023/10/09 05:05:48;;;;;;;;;;;;;;;;;;5109892;28;19912;-70
2023/10/09 05:08:19;;;;;;;;;;;;;;;;;;5110691;28;19908;-69
2023/10/09 05:16:04;;;;;;;;;;;;;;;;;;5113640;28;19976;-68
2023/10/09 05:19:54;;;;;;;;;;;;;;;;;;5110573;27;20392;-67
2023/10/09 05:22:29;;;;;;;;;;;;;;;;;;5091199;28;19934;-66
2023/10/09 05:24:55;;;;;;;;;;;;;;;;;;5083887;28;19916;-65
2023/10/09 05:28:24;;;;;;;;;;;;;;;;;;5150734;27;19917;-66
2023/10/09 05:34:06;;;;;;;;;;;;;;;;;;5106942;28;19919;-65
2023/10/09 05:36:35;;;;;;;;;;;;;;;;;;5103744;28;19912;-65
2023/10/09 05:41:53;;;;;;;;;;;;;;;;;;5109290;28;19919;-65
2023/10/09 05:47:53;;;;;;;;;;;;;;;;;;5110103;28;19970;-65
2023/10/09 05:58:42;;;;;;;;;;;;;;;;;;5099192;27;19920;-65
2023/10/09 06:06:01;;;;;;;;;;;;;;;;;;5088202;28;19920;-66
2023/10/09 06:09:00;;;;;;;;;;;;;;;;;;5086947;28;19975;-66
2023/10/09 06:16:41;;;;;;;;;;;;;;;;;;5105661;27;19920;-65
2023/10/09 06:24:42;;;;;;;;;;;;;;;;;;5086573;27;19921;-65
2023/10/09 06:29:36;;;;;;;;;;;;;;;;;;5087179;28;19912;-65
2023/10/09 06:34:51;;;;;;;;;;;;;;;;;;5087456;28;20383;-65
2023/10/09 06:41:23;;;;;;;;;;;;;;;;;;5087183;28;19939;-66
2023/10/09 06:42:44;;;;;;;;;;;;;;;;;;5087459;28;19921;-65
2023/10/09 06:45:16;;;;;;;;;;;;;;;;;;5088056;28;20391;-63
2023/10/09 06:47:42;;;;;;;;;;;;;;;;;;5088096;28;19920;-65
2023/10/09 06:54:56;;;;;;;;;;;;;;;;;;5110078;27;19927;-66
2023/10/09 06:57:43;;;;;;;;;;;;;;;;;;5110275;28;19920;-66
2023/10/09 07:02:57;;;;;;;;;;;;;;;;;;5088333;28;20011;-65
2023/10/09 07:05:31;;;;;;;;;;;;;;;;;;5128976;27;20029;-67
2023/10/09 07:08:28;;;;;;;;;;;;;;;;;;5128209;28;19953;-64
2023/10/09 07:10:43;;;;;;;;;;;;;;;;;;5107762;28;20000;-64
2023/10/09 07:13:11;;;;;;;;;;;;;;;;;;5096062;28;20022;-64
2023/10/09 07:20:15;;;;;;;;;;;;;;;;;;5031305;28;20289;-64
2023/10/09 07:22:55;;;;;;;;;;;;;;;;;;5025861;28;20367;-63
2023/10/09 07:25:40;;;;;;;;;;;;;;;;;;5025329;28;20401;-63
2023/10/09 07:28:18;;;;;;;;;;;;;;;;;;5025740;28;19916;-64
2023/10/09 07:30:45;;;;;;;;;;;;;;;;;;5043328;28;19952;-64
2023/10/09 07:35:57;;;;;;;;;;;;;;;;;;5047139;28;20047;-65
2023/10/09 07:38:23;;;;;;;;;;;;;;;;;;5029821;28;19963;-65
2023/10/09 07:40:55;;;;;;;;;;;;;;;;;;5043966;28;19910;-65
2023/10/09 07:43:26;;;;;;;;;;;;;;;;;;5044578;28;19920;-65
2023/10/09 07:48:25;;;;;;;;;;;;;;;;;;5025565;28;19944;-66
2023/10/09 07:50:57;;;;;;;;;;;;;;;;;;5026887;28;20377;-66
2023/10/09 07:53:26;;;;;;;;;;;;;;;;;;5022059;28;19918;-66
2023/10/09 07:55:58;;;;;;;;;;;;;;;;;;5029344;28;19909;-66
2023/10/09 07:58:27;;;;;;;;;;;;;;;;;;5025542;28;19929;-67
2023/10/09 08:01:15;;;;;;;;;;;;;;;;;;5025413;28;19947;-65
2023/10/09 08:06:06;;;;;;;;;;;;;;;;;;5086488;27;19921;-66
2023/10/09 08:11:43;;;;;;;;;;;;;;;;;;5067888;28;20054;-67
2023/10/09 08:15:34;;;;;;;;;;;;;;;;;;5081578;27;19920;-66
2023/10/09 08:18:28;;;;;;;;;;;;;;;;;;5086678;27;20505;-66
2023/10/09 08:23:29;;;;;;;;;;;;;;;;;;5086534;28;19920;-67
2023/10/09 08:26:12;;;;;;;;;;;;;;;;;;5086907;28;19927;-66
2023/10/09 08:28:39;;;;;;;;;;;;;;;;;;5088117;28;19916;-66
2023/10/09 08:31:18;;;;;;;;;;;;;;;;;;5088428;28;20280;-66
2023/10/09 08:33:44;;;;;;;;;;;;;;;;;;5088310;28;19930;-67
2023/10/09 08:36:14;;;;;;;;;;;;;;;;;;5098141;28;20001;-66
2023/10/09 08:38:42;;;;;;;;;;;;;;;;;;5090018;28;19912;-66
2023/10/09 08:41:15;;;;;;;;;;;;;;;;;;5089725;28;19912;-67
2023/10/09 08:43:41;;;;;;;;;;;;;;;;;;5088519;28;19926;-67
2023/10/09 08:46:07;;;;;;;;;;;;;;;;;;5089337;28;19943;-67
2023/10/09 08:48:37;;;;;;;;;;;;;;;;;;5085306;28;21706;-67
2023/10/09 08:51:06;;;;;;;;;;;;;;;;;;5076467;28;19912;-67
2023/10/09 08:53:33;;;;;;;;;;;;;;;;;;5078588;28;19921;-67
2023/10/09 08:55:59;;;;;;;;;;;;;;;;;;5089586;28;19940;-67
2023/10/09 08:58:26;;;;;;;;;;;;;;;;;;5086475;28;19967;-66
2023/10/09 09:00:55;;;;;;;;;;;;;;;;;;5087763;28;19917;-67
2023/10/09 09:03:23;;;;;;;;;;;;;;;;;;5086301;28;20012;-67
2023/10/09 09:05:51;;;;;;;;;;;;;;;;;;5086771;28;20011;-66
2023/10/09 09:08:17;;;;;;;;;;;;;;;;;;5078858;28;19955;-66
2023/10/09 09:10:46;;;;;;;;;;;;;;;;;;5087946;28;19974;-65
2023/10/09 09:13:18;;;;;;;;;;;;;;;;;;5092682;28;20338;-66
2023/10/09 09:15:44;;;;;;;;;;;;;;;;;;5108632;28;19944;-63
2023/10/09 09:18:45;;;;;;;;;;;;;;;;;;5109210;27;19942;-65
2023/10/09 09:21:11;;;;;;;;;;;;;;;;;;5088485;28;20032;-67
2023/10/09 09:23:39;;;;;;;;;;;;;;;;;;5132328;27;20431;-66
2023/10/09 09:26:11;;;;;;;;;;;;;;;;;;5108803;28;20364;-68
2023/10/09 09:29:33;;;;;;;;;;;;;;;;;;5107232;27;19924;-64
2023/10/09 09:32:15;;;;;;;;;;;;;;;;;;5110027;28;20018;-65
2023/10/09 09:35:47;;;;;;;;;;;;;;;;;;5120321;27;19926;-65
2023/10/09 09:38:17;;;;;;;;;;;;;;;;;;5119591;28;19911;-65
2023/10/09 09:40:43;;;;;;;;;;;;;;;;;;5119070;28;20007;-65
2023/10/09 09:43:21;;;;;;;;;;;;;;;;;;5111128;28;20015;-65
2023/10/09 09:45:49;;;;;;;;;;;;;;;;;;5107396;28;19912;-66
2023/10/09 09:48:16;;;;;;;;;;;;;;;;;;5122120;28;19912;-66
2023/10/09 09:50:46;;;;;;;;;;;;;;;;;;5110143;28;19915;-65
2023/10/09 09:53:16;;;;;;;;;;;;;;;;;;5108451;28;19915;-66
2023/10/09 09:55:42;;;;;;;;;;;;;;;;;;5109897;28;19923;-66
2023/10/09 09:58:18;;;;;;;;;;;;;;;;;;5108527;28;19912;-66
2023/10/09 10:00:44;;;;;;;;;;;;;;;;;;5108247;28;19919;-67
2023/10/09 10:03:10;;;;;;;;;;;;;;;;;;5109055;28;19915;-67
2023/10/09 10:05:37;;;;;;;;;;;;;;;;;;5108351;28;20288;-66
2023/10/09 10:08:04;;;;;;;;;;;;;;;;;;5109768;28;19915;-66
2023/10/09 10:10:32;;;;;;;;;;;;;;;;;;5109689;28;19935;-67
2023/10/09 10:14:46;;;;;;;;;;;;;;;;;;5166909;27;19923;-68
2023/10/09 10:17:18;;;;;;;;;;;;;;;;;;5170074;27;19937;-68
2023/10/09 10:19:44;;;;;;;;;;;;;;;;;;5163379;27;19918;-68
2023/10/09 10:22:12;;;;;;;;;;;;;;;;;;5166541;27;20415;-68
2023/10/09 10:24:54;;;;;;;;;;;;;;;;;;5133799;27;19912;-68
2023/10/09 10:27:26;;;;;;;;;;;;;;;;;;5143703;27;19915;-68
2023/10/09 10:29:52;;;;;;;;;;;;;;;;;;5164629;27;19911;-67
2023/10/09 10:32:20;;;;;;;;;;;;;;;;;;5171925;27;19906;-68
2023/10/09 10:34:47;;;;;;;;;;;;;;;;;;5170747;27;19930;-68
2023/10/09 10:37:13;;;;;;;;;;;;;;;;;;5169605;27;19915;-69
2023/10/09 10:39:45;;;;;;;;;;;;;;;;;;5171417;27;19952;-68
2023/10/09 10:42:33;;;;;;;;;;;;;;;;;;5167641;27;19956;-69
2023/10/09 10:45:02;;;;;;;;;;;;;;;;;;5151708;27;19915;-68
2023/10/09 10:47:35;;;;;;;;;;;;;;;;;;5151356;27;19929;-68
2023/10/09 10:53:02;;;;;;;;;;;;;;;;;;5086146;28;19954;-70
2023/10/09 10:58:13;;;;;;;;;;;;;;;;;;5150224;27;20017;-69
2023/10/09 11:03:29;;;;;;;;;;;;;;;;;;5148128;27;19915;-68
2023/10/09 11:05:55;;;;;;;;;;;;;;;;;;5151293;27;20359;-67
2023/10/09 11:08:22;;;;;;;;;;;;;;;;;;5161348;27;19911;-68
2023/10/09 11:10:51;;;;;;;;;;;;;;;;;;5149956;27;19907;-69
2023/10/09 11:13:34;;;;;;;;;;;;;;;;;;5165538;27;19925;-69
2023/10/09 11:16:43;;;;;;;;;;;;;;;;;;5144862;27;19950;-69
2023/10/09 11:18:51;;;;;;;;;;;;;;;;;;5141430;27;19908;-70
2023/10/09 11:26:21;;;;;;;;;;;;;;;;;;5138988;27;19980;-68
2023/10/09 11:28:56;;;;;;;;;;;;;;;;;;5153233;27;19911;-69
2023/10/09 11:31:22;;;;;;;;;;;;;;;;;;5153139;27;20377;-70
2023/10/09 11:33:48;;;;;;;;;;;;;;;;;;5153669;27;19919;-69
2023/10/09 11:36:14;;;;;;;;;;;;;;;;;;5154259;27;19918;-71
2023/10/09 11:38:45;;;;;;;;;;;;;;;;;;5136242;27;19907;-69
2023/10/09 11:41:18;;;;;;;;;;;;;;;;;;5156151;27;19918;-69
2023/10/09 11:43:54;;;;;;;;;;;;;;;;;;5139141;27;20337;-75
2023/10/09 11:46:47;;;;;;;;;;;;;;;;;;5157388;27;19945;-74
2023/10/09 11:52:09;;;;;;;;;;;;;;;;;;5155041;27;20354;-74
2023/10/09 11:54:31;;;;;;;;;;;;;;;;;;5144768;27;19973;-68
2023/10/09 11:57:00;;;;;;;;;;;;;;;;;;5137068;27;19950;-69
2023/10/09 11:59:27;;;;;;;;;;;;;;;;;;5143785;27;19912;-66
2023/10/09 12:01:53;;;;;;;;;;;;;;;;;;5144956;27;19916;-71
2023/10/09 12:04:18;;;;;;;;;;;;;;;;;;5136514;27;19915;-70
2023/10/09 12:06:44;;;;;;;;;;;;;;;;;;5135360;27;19907;-69
2023/10/09 12:09:17;;;;;;;;;;;;;;;;;;5134588;27;19918;-69
2023/10/09 12:11:43;;;;;;;;;;;;;;;;;;5129156;27;19915;-68
2023/10/09 12:14:09;;;;;;;;;;;;;;;;;;5122470;27;19926;-68
2023/10/09 12:16:39;;;;;;;;;;;;;;;;;;5136062;27;19911;-75
2023/10/09 12:19:09;;;;;;;;;;;;;;;;;;5149439;27;20389;-71
2023/10/09 12:21:36;;;;;;;;;;;;;;;;;;5139194;27;19911;-72
2023/10/09 12:24:11;;;;;;;;;;;;;;;;;;5132407;27;20017;-72
2023/10/09 12:26:39;;;;;;;;;;;;;;;;;;5134043;27;19994;-72
2023/10/09 12:29:10;;;;;;;;;;;;;;;;;;5133957;27;20681;-72
2023/10/09 12:31:36;;;;;;;;;;;;;;;;;;5134483;27;20323;-72
2023/10/09 12:34:02;;;;;;;;;;;;;;;;;;5133354;27;20014;-72
2023/10/09 12:36:28;;;;;;;;;;;;;;;;;;5133152;27;19914;-72
2023/10/09 12:38:58;;;;;;;;;;;;;;;;;;5133862;27;19950;-72
2023/10/09 12:41:28;;;;;;;;;;;;;;;;;;5133760;27;20400;-72
2023/10/09 12:43:54;;;;;;;;;;;;;;;;;;5133558;27;19907;-72
2023/10/09 12:46:23;;;;;;;;;;;;;;;;;;5133337;27;19943;-72
2023/10/09 12:48:48;;;;;;;;;;;;;;;;;;5131654;27;20531;-73
2023/10/09 12:51:17;;;;;;;;;;;;;;;;;;5132589;27;19908;-72
2023/10/09 12:53:43;;;;;;;;;;;;;;;;;;5132065;27;19946;-72
2023/10/09 12:56:11;;;;;;;;;;;;;;;;;;5133634;27;19961;-73
2023/10/09 12:58:37;;;;;;;;;;;;;;;;;;5114092;27;19911;-73
2023/10/09 13:01:09;;;;;;;;;;;;;;;;;;5132178;27;19913;-73
2023/10/09 13:03:38;;;;;;;;;;;;;;;;;;5132846;27;19918;-73
2023/10/09 13:06:10;;;;;;;;;;;;;;;;;;5132620;27;19912;-73
2023/10/09 13:08:36;;;;;;;;;;;;;;;;;;5134273;27;20263;-74
2023/10/09 13:11:10;;;;;;;;;;;;;;;;;;5133636;27;19998;-73
2023/10/09 13:13:47;;;;;;;;;;;;;;;;;;5134413;27;19972;-73
2023/10/09 13:16:20;;;;;;;;;;;;;;;;;;5135254;27;19911;-73
2023/10/09 13:18:49;;;;;;;;;;;;;;;;;;5116179;27;19955;-73
2023/10/09 13:21:16;;;;;;;;;;;;;;;;;;5135343;27;19931;-74
2023/10/09 13:23:46;;;;;;;;;;;;;;;;;;5135275;27;19945;-74
2023/10/09 13:26:18;;;;;;;;;;;;;;;;;;5134729;27;19959;-74
2023/10/09 13:28:45;;;;;;;;;;;;;;;;;;5116728;27;19911;-74
2023/10/09 13:31:13;;;;;;;;;;;;;;;;;;5135494;27;19940;-74
2023/10/09 13:33:39;;;;;;;;;;;;;;;;;;5134888;27;19923;-74
2023/10/09 13:36:15;;;;;;;;;;;;;;;;;;5116988;27;19908;-74
2023/10/09 13:38:43;;;;;;;;;;;;;;;;;;5132350;27;20374;-74
2023/10/09 13:41:12;;;;;;;;;;;;;;;;;;5133833;27;19994;-73
2023/10/09 13:43:40;;;;;;;;;;;;;;;;;;5115627;28;19946;-73
2023/10/09 13:46:06;;;;;;;;;;;;;;;;;;5134271;27;19964;-73
2023/10/09 13:48:38;;;;;;;;;;;;;;;;;;5132698;27;19908;-73
2023/10/09 13:51:07;;;;;;;;;;;;;;;;;;5134555;27;19914;-73
2023/10/09 13:53:35;;;;;;;;;;;;;;;;;;5133839;27;20367;-72
2023/10/09 13:56:01;;;;;;;;;;;;;;;;;;5134083;27;19907;-72
2023/10/09 13:58:27;;;;;;;;;;;;;;;;;;5134421;27;19908;-73
2023/10/09 14:00:53;;;;;;;;;;;;;;;;;;5132981;27;20408;-73
2023/10/09 14:03:23;;;;;;;;;;;;;;;;;;5134351;27;19911;-73
2023/10/09 14:05:54;;;;;;;;;;;;;;;;;;5134385;27;19930;-73
2023/10/09 14:08:21;;;;;;;;;;;;;;;;;;5133280;27;19911;-73
2023/10/09 14:10:48;;;;;;;;;;;;;;;;;;5134171;27;19963;-73
2023/10/09 14:13:14;;;;;;;;;;;;;;;;;;5115711;28;20383;-73
2023/10/09 14:15:41;;;;;;;;;;;;;;;;;;5133332;28;20030;-73
2023/10/09 14:18:08;;;;;;;;;;;;;;;;;;5134373;28;19994;-73
2023/10/09 14:20:35;;;;;;;;;;;;;;;;;;5115676;28;19908;-73
2023/10/09 14:23:07;;;;;;;;;;;;;;;;;;5134375;28;19915;-73
2023/10/09 14:25:33;;;;;;;;;;;;;;;;;;5134763;28;19911;-73
2023/10/09 14:27:59;;;;;;;;;;;;;;;;;;5134681;28;20248;-73
2023/10/09 14:30:33;;;;;;;;;;;;;;;;;;5134310;28;19907;-73
2023/10/09 14:33:01;;;;;;;;;;;;;;;;;;5116255;28;19923;-72
2023/10/09 14:35:30;;;;;;;;;;;;;;;;;;5134813;28;19939;-73
2023/10/09 14:37:57;;;;;;;;;;;;;;;;;;5134661;28;19914;-73
2023/10/09 14:40:29;;;;;;;;;;;;;;;;;;5116149;28;19912;-74
2023/10/09 14:42:57;;;;;;;;;;;;;;;;;;5134435;28;19908;-73
2023/10/09 14:45:25;;;;;;;;;;;;;;;;;;5134518;28;20315;-73
2023/10/09 14:47:52;;;;;;;;;;;;;;;;;;5134458;28;19915;-73
2023/10/09 14:50:21;;;;;;;;;;;;;;;;;;5134083;28;19952;-73
2023/10/09 14:52:48;;;;;;;;;;;;;;;;;;5134361;28;20279;-73
2023/10/09 14:55:19;;;;;;;;;;;;;;;;;;5134627;28;19968;-73
2023/10/09 14:57:45;;;;;;;;;;;;;;;;;;5115670;28;19959;-73
2023/10/09 15:00:14;;;;;;;;;;;;;;;;;;5136094;27;19939;-73
2023/10/09 15:02:40;;;;;;;;;;;;;;;;;;5138377;27;20283;-73
2023/10/09 15:05:10;;;;;;;;;;;;;;;;;;5137918;27;19907;-73
2023/10/09 15:07:38;;;;;;;;;;;;;;;;;;5138177;27;19908;-73
2023/10/09 15:10:04;;;;;;;;;;;;;;;;;;5138148;27;19907;-72
2023/10/09 15:12:30;;;;;;;;;;;;;;;;;;5137344;27;19914;-72
2023/10/09 15:14:57;;;;;;;;;;;;;;;;;;5119646;27;19918;-73
2023/10/09 15:17:24;;;;;;;;;;;;;;;;;;5138026;27;19918;-73
2023/10/09 15:19:56;;;;;;;;;;;;;;;;;;5119066;27;19907;-72
2023/10/09 15:22:22;;;;;;;;;;;;;;;;;;5137979;27;19912;-73
2023/10/09 15:24:48;;;;;;;;;;;;;;;;;;5137852;27;19998;-72
2023/10/09 15:27:15;;;;;;;;;;;;;;;;;;5137447;27;20044;-72
2023/10/09 15:29:44;;;;;;;;;;;;;;;;;;5137924;27;20007;-72
2023/10/09 15:32:22;;;;;;;;;;;;;;;;;;5118887;27;19908;-72
2023/10/09 15:34:48;;;;;;;;;;;;;;;;;;5138016;27;19923;-72
2023/10/09 15:37:14;;;;;;;;;;;;;;;;;;5137719;27;19907;-72
2023/10/09 15:39:41;;;;;;;;;;;;;;;;;;5137227;27;20308;-72
2023/10/09 15:42:07;;;;;;;;;;;;;;;;;;5137705;27;19907;-72
2023/10/09 15:44:36;;;;;;;;;;;;;;;;;;5119139;27;19914;-72
2023/10/09 15:47:02;;;;;;;;;;;;;;;;;;5137181;27;19951;-72
2023/10/09 15:49:29;;;;;;;;;;;;;;;;;;5137502;27;19914;-72
2023/10/09 15:51:55;;;;;;;;;;;;;;;;;;5137423;27;19908;-73
2023/10/09 15:54:21;;;;;;;;;;;;;;;;;;5118434;27;19915;-72
2023/10/09 15:56:47;;;;;;;;;;;;;;;;;;5118734;27;20252;-72
2023/10/09 15:59:13;;;;;;;;;;;;;;;;;;5137189;27;19907;-72
2023/10/09 16:01:48;;;;;;;;;;;;;;;;;;5136850;27;20385;-72
2023/10/09 16:04:15;;;;;;;;;;;;;;;;;;5118814;27;19908;-72
2023/10/09 16:06:41;;;;;;;;;;;;;;;;;;5119010;27;19908;-73
2023/10/09 16:09:11;;;;;;;;;;;;;;;;;;5136744;27;19915;-72
2023/10/09 16:11:38;;;;;;;;;;;;;;;;;;5137193;27;19907;-72
2023/10/09 16:14:09;;;;;;;;;;;;;;;;;;5136672;27;19930;-72
2023/10/09 16:16:36;;;;;;;;;;;;;;;;;;5137053;27;19907;-72
2023/10/09 16:19:04;;;;;;;;;;;;;;;;;;5136868;27;19915;-72
2023/10/09 16:21:30;;;;;;;;;;;;;;;;;;5117969;27;19911;-72
2023/10/09 16:26:16;;;;;;;;;;;;;;;;;;5112334;27;19916;-72
2023/10/09 16:28:42;;;;;;;;;;;;;;;;;;5111305;28;19912;-71
2023/10/09 16:31:14;;;;;;;;;;;;;;;;;;5110264;28;19908;-71
2023/10/09 16:33:40;;;;;;;;;;;;;;;;;;5111689;28;19915;-72
2023/10/09 16:36:07;;;;;;;;;;;;;;;;;;5111167;28;20006;-72
2023/10/09 16:38:35;;;;;;;;;;;;;;;;;;5111537;28;20280;-72
2023/10/09 16:41:07;;;;;;;;;;;;;;;;;;5111692;28;20032;-73
2023/10/09 16:43:33;;;;;;;;;;;;;;;;;;5111215;28;19912;-73
2023/10/09 16:45:59;;;;;;;;;;;;;;;;;;5111343;28;19973;-77
2023/10/09 16:48:27;;;;;;;;;;;;;;;;;;5111357;28;20014;-73
2023/10/09 16:50:53;;;;;;;;;;;;;;;;;;5111032;28;19912;-71
2023/10/09 16:53:19;;;;;;;;;;;;;;;;;;5111702;28;20383;-73
2023/10/09 16:55:45;;;;;;;;;;;;;;;;;;5110031;28;20427;-73
2023/10/09 16:58:12;;;;;;;;;;;;;;;;;;5110806;28;19915;-73
2023/10/09 17:00:39;;;;;;;;;;;;;;;;;;5111152;28;19915;-73
2023/10/09 17:03:06;;;;;;;;;;;;;;;;;;5111264;28;19998;-73
2023/10/09 17:08:34;;;;;;;;;;;;;;;;;;5087705;28;19995;-72
2023/10/09 17:11:03;;;;;;;;;;;;;;;;;;5111076;28;20003;-70
2023/10/09 17:13:29;;;;;;;;;;;;;;;;;;5109736;28;20287;-71
2023/10/09 17:15:55;;;;;;;;;;;;;;;;;;5110979;28;19908;-73
2023/10/09 17:18:21;;;;;;;;;;;;;;;;;;5110516;28;19969;-73
2023/10/09 17:20:48;;;;;;;;;;;;;;;;;;5110892;28;19995;-73
2023/10/09 17:23:15;;;;;;;;;;;;;;;;;;5110761;28;19924;-72
2023/10/09 17:25:44;;;;;;;;;;;;;;;;;;5110306;28;19920;-71
2023/10/09 17:28:10;;;;;;;;;;;;;;;;;;5110693;28;19950;-74
2023/10/09 17:30:36;;;;;;;;;;;;;;;;;;5110637;28;20306;-73
2023/10/09 17:33:02;;;;;;;;;;;;;;;;;;5110235;28;19931;-73
2023/10/09 17:35:31;;;;;;;;;;;;;;;;;;5108971;28;20273;-73
2023/10/09 17:37:56;;;;;;;;;;;;;;;;;;5096708;28;19908;-72
2023/10/09 17:40:25;;;;;;;;;;;;;;;;;;5095038;28;19915;-73
2023/10/09 17:42:54;;;;;;;;;;;;;;;;;;5096332;28;19936;-72
2023/10/09 17:45:23;;;;;;;;;;;;;;;;;;5096606;28;19916;-72
2023/10/09 17:47:49;;;;;;;;;;;;;;;;;;5096282;28;19915;-72
2023/10/09 17:50:14;;;;;;;;;;;;;;;;;;5096885;28;19908;-73
2023/10/09 17:52:42;;;;;;;;;;;;;;;;;;5094312;28;19916;-72
2023/10/09 17:55:10;;;;;;;;;;;;;;;;;;5096581;28;19912;-72
2023/10/09 17:57:39;;;;;;;;;;;;;;;;;;5096499;28;19953;-72
2023/10/09 18:00:08;;;;;;;;;;;;;;;;;;5095083;28;19909;-72
2023/10/09 18:02:34;;;;;;;;;;;;;;;;;;5095653;28;19908;-72
2023/10/09 18:05:01;;;;;;;;;;;;;;;;;;5095366;28;19920;-73
2023/10/09 18:07:26;;;;;;;;;;;;;;;;;;5095963;28;20384;-71
2023/10/09 18:09:52;;;;;;;;;;;;;;;;;;5096344;28;19908;-73
2023/10/09 18:12:18;;;;;;;;;;;;;;;;;;5096285;28;20003;-71
2023/10/09 18:14:46;;;;;;;;;;;;;;;;;;5095863;28;20275;-72
2023/10/09 18:17:19;;;;;;;;;;;;;;;;;;5096143;28;19909;-73
2023/10/09 18:19:45;;;;;;;;;;;;;;;;;;5096343;28;19932;-72
2023/10/09 18:22:12;;;;;;;;;;;;;;;;;;5095650;28;19990;-72
2023/10/09 18:24:40;;;;;;;;;;;;;;;;;;5095762;28;20295;-72
2023/10/09 18:27:07;;;;;;;;;;;;;;;;;;5096053;28;20357;-72
2023/10/09 18:29:33;;;;;;;;;;;;;;;;;;5095433;28;19928;-72
2023/10/09 18:32:02;;;;;;;;;;;;;;;;;;5095838;28;20420;-72
2023/10/09 18:34:29;;;;;;;;;;;;;;;;;;5095777;28;19908;-72
2023/10/09 18:36:55;;;;;;;;;;;;;;;;;;5095397;28;19999;-72
2023/10/09 18:39:22;;;;;;;;;;;;;;;;;;5095721;28;19962;-73
2023/10/09 18:41:48;;;;;;;;;;;;;;;;;;5095833;28;19908;-72
2023/10/09 18:44:14;;;;;;;;;;;;;;;;;;5095174;28;20303;-72
2023/10/09 18:46:40;;;;;;;;;;;;;;;;;;5094285;28;19938;-72
2023/10/09 18:49:09;;;;;;;;;;;;;;;;;;5094212;28;19931;-72
2023/10/09 18:51:35;;;;;;;;;;;;;;;;;;5095471;28;19929;-72
2023/10/09 18:54:02;;;;;;;;;;;;;;;;;;5095411;28;19998;-70
2023/10/09 18:56:28;;;;;;;;;;;;;;;;;;5095012;28;19931;-70
2023/10/09 18:58:56;;;;;;;;;;;;;;;;;;5095318;28;20383;-72
2023/10/09 19:01:22;;;;;;;;;;;;;;;;;;5095212;28;19915;-72
2023/10/09 19:03:50;;;;;;;;;;;;;;;;;;5094896;28;19916;-72
2023/10/09 19:06:22;;;;;;;;;;;;;;;;;;5095256;28;19946;-72
2023/10/09 19:08:58;;;;;;;;;;;;;;;;;;5111634;27;20294;-72
2023/10/09 19:11:59;;;;;;;;;;;;;;;;;;5091261;27;19916;-72
2023/10/09 19:14:25;;;;;;;;;;;;;;;;;;5091572;28;19958;-73
2023/10/09 19:16:51;;;;;;;;;;;;;;;;;;5090917;28;19909;-73
2023/10/09 19:19:17;;;;;;;;;;;;;;;;;;5090656;28;19947;-70
2023/10/09 19:21:46;;;;;;;;;;;;;;;;;;5091204;28;20365;-71
2023/10/09 19:24:12;;;;;;;;;;;;;;;;;;5090950;28;19908;-71
2023/10/09 19:26:38;;;;;;;;;;;;;;;;;;5089824;28;19909;-71
2023/10/09 19:29:07;;;;;;;;;;;;;;;;;;5089822;28;19961;-71
2023/10/09 19:31:33;;;;;;;;;;;;;;;;;;5090556;28;20027;-72
2023/10/09 19:33:59;;;;;;;;;;;;;;;;;;5089319;28;19955;-72
2023/10/09 19:36:26;;;;;;;;;;;;;;;;;;5089796;28;19908;-73
2023/10/09 19:38:52;;;;;;;;;;;;;;;;;;5089579;28;19961;-74
2023/10/09 19:42:01;;;;;;;;;;;;;;;;;;5070817;28;19939;-73
2023/10/09 19:44:28;;;;;;;;;;;;;;;;;;5070677;28;19913;-73
2023/10/09 19:46:54;;;;;;;;;;;;;;;;;;5070726;28;19923;-73
2023/10/09 19:49:20;;;;;;;;;;;;;;;;;;5070955;28;19913;-72